Catuji, Brazil
Current Conditions -  °F | °C
As of 6:00 AM on Monday 20 Oct 2014 (Local Time) from SBMK Reporting Station
Clear Clear  
Wind Chill: 73°   Ceiling: Unl
Heat Index: 73°   Visibility: 5mi
Dew Point: 55°   Wind: 0mph
Humidity: 53%   Direction: NA
Pressure: 29.94"   Gusts: NA
Location:  17.3°S, 41.52°W
Report Text: SBMK 200900Z 00000KT 8000 NSC 23/13 Q1014
Loading
Personal Weather Stations






























Interactive Weather Map
Tropical Storm Tracking
New forecast layout! Learn more

10-Day Weather Forecast

Advertisements
Track Severe Weather on mobile